• Join FlightAware (Why Join?)
  • Login
  • US Flag 
11:27PM EDT


 

Airport Tracker/Info


-or-


 

Live Flight TrackerFlight Track Log ✈ DAL949 ✈ 04-Mar-2014 ✈ KMSP - CYVR

Flight Track Log - Related Links

Times and Time Zones

All times are in EST time to prevent confusion due to time zone crossing. See the DAL949 flight status page for this flight to view local times or setup timezone preferences in your user account.

Time Position Orientation Groundspeed Altitude Reporting Facility
EST Latitude Longitude Course Direction KTS MPH feet Rate Location/Type
06:59PM 44.8667 -93.1333 295° West 183 211 2,900  Level Minneapolis TRACON
07:00PM 44.9000 -93.0667 55° Northeast 253 291 5,700 2,640 Climbing Minneapolis TRACON
07:01PM 45.0095 -93.6449 295° West  Level FlightAware Approximate
07:01PM 44.9667 -93.0667 360° North 250 288 8,300  Level Minneapolis TRACON
07:02PM 45.0573 -93.7883 295° West  Level FlightAware Approximate
07:02PM 45.0333 -93.0667 360° North 264 304 11,400  Level Minneapolis TRACON
07:03PM 45.1003 -93.9346 288° West  Level FlightAware Approximate
07:04PM 45.1340 -94.0861 288° West  Level FlightAware Approximate
07:04PM 45.1114 -93.1097 339° North 277 319 14,100  Level Minneapolis Center
07:05PM 45.1680 -94.2375 295° West  Level FlightAware Approximate
07:05PM 45.1181 -93.2625 274° West 342 394 16,200  Level Minneapolis Center
07:06PM 45.1117 -93.3981 266° West 345 397 18,300 2,040 Climbing Minneapolis Center
07:07PM 45.1056 -93.5386 267° West 357 411 20,500 2,160 Climbing Minneapolis Center
07:08PM 45.0986 -93.6808 266° West 360 414 22,800 1,860 Climbing Minneapolis Center
07:09PM 45.0906 -93.8228 265° West 361 415 24,400 1,560 Climbing Minneapolis Center
07:10PM 45.1175 -93.9950 283° West 377 434 26,100 1,440 Climbing Minneapolis Center
07:11PM 45.1531 -94.1394 289° West 384 442 27,400 1,680 Climbing Minneapolis Center
07:12PM 45.1869 -94.2847 288° West 390 449 29,600 1,560 Climbing Minneapolis Center
07:13PM 45.2214 -94.4225 290° West 377 434 30,700 840 Climbing Minneapolis Center
07:14PM 45.2544 -94.5675 288° West 381 438 31,400 900 Climbing Minneapolis Center
07:15PM 45.2925 -94.7258 289° West 391 450 32,600 1,020 Climbing Minneapolis Center
07:16PM 45.3267 -94.8722 288° West 391 450 33,600 960 Climbing Minneapolis Center
07:17PM 45.3681 -95.0486 289° West 392 451 34,600 1,080 Climbing Minneapolis Center
07:18PM 45.4022 -95.1953 288° West 392 451 35,900 660 Climbing Minneapolis Center
07:19PM 45.4381 -95.3497 288° West 385 443 36,000  Climbing Minneapolis Center
07:20PM 45.4681 -95.4839 288° West 386 444 36,000  Level Minneapolis Center
07:21PM 45.5019 -95.6306 288° West 388 447 36,000  Level Minneapolis Center
07:22PM 45.5347 -95.7783 288° West 391 450 36,000  Level Minneapolis Center
07:23PM 45.5750 -95.9594 288° West 400 460 36,000  Level Minneapolis Center
07:24PM 45.6086 -96.1114 288° West 400 460 36,000  Level Minneapolis Center
07:25PM 45.6417 -96.2633 287° West 400 460 36,000  Level Minneapolis Center
07:26PM 45.6764 -96.4119 289° West 400 460 36,000  Level Minneapolis Center
07:28PM 45.7081 -96.5644 287° West 400 460 36,000  Level Minneapolis Center
07:29PM 45.7411 -96.7169 287° West 401 461 36,000  Level Minneapolis Center
07:30PM 45.7814 -96.8986 288° West 401 461 36,000  Level Minneapolis Center
07:31PM 45.8136 -97.0519 287° West 402 463 36,000  Level Minneapolis Center
07:32PM 45.8458 -97.2056 287° West 404 465 36,000  Level Minneapolis Center
07:33PM 45.8778 -97.3589 287° West 404 465 36,000  Level Minneapolis Center
07:34PM 45.9100 -97.5083 287° West 404 465 36,000 -60 Level Minneapolis Center
07:35PM 45.9417 -97.6631 286° West 403 464 35,900  Descending Minneapolis Center
07:36PM 45.9792 -97.8461 286° West 403 464 36,000  Climbing Minneapolis Center
07:37PM 46.0103 -98.0006 286° West 402 463 35,900  Descending Minneapolis Center
07:38PM 46.0442 -98.1639 287° West 402 463 36,000  Climbing Minneapolis Center
07:39PM 46.0742 -98.3192 286° West 403 464 36,000  Level Minneapolis Center
07:40PM 46.1036 -98.4675 286° West 404 465 36,000  Level Minneapolis Center
07:41PM 46.1347 -98.6225 286° West 403 464 36,000 -60 Level Minneapolis Center
07:42PM 46.1644 -98.7767 286° West 403 464 35,900 -60 Descending Minneapolis Center
07:43PM 46.2014 -98.9639 286° West 403 464 35,900  Level Minneapolis Center
07:44PM 46.2300 -99.1203 285° West 403 464 36,000  Climbing Minneapolis Center
07:45PM 46.2600 -99.2761 286° West 403 464 35,900  Descending Minneapolis Center
07:46PM 46.2900 -99.4386 285° West 404 465 36,000  Climbing Minneapolis Center
07:47PM 46.3197 -99.5958 285° West 405 466 36,000 -60 Level Minneapolis Center
07:48PM 46.3536 -99.7736 285° West 408 470 35,900  Descending Minneapolis Center
07:49PM 46.3775 -99.9147 284° West 410 472 36,000  Climbing Minneapolis Center
07:50PM 46.4125 -100.1053 285° West 410 472 36,000  Level Minneapolis Center
07:51PM 46.4408 -100.2647 285° West 410 472 36,000  Level Minneapolis Center
07:52PM 46.4706 -100.4278 285° West 411 473 36,000  Level Minneapolis Center
07:53PM 46.4997 -100.5881 285° West 415 478 36,000  Level Minneapolis Center
07:54PM 46.5286 -100.7494 285° West 415 478 36,000  Level Minneapolis Center
07:55PM 46.5564 -100.9125 284° West 415 478 36,000  Level Minneapolis Center
07:56PM 46.5839 -101.0719 284° West 414 476 36,000  Level Minneapolis Center
07:57PM 46.6169 -101.2647 284° West 413 475 36,000  Level Minneapolis Center
07:58PM 46.6422 -101.4308 283° West 416 479 36,000  Level Minneapolis Center
07:59PM 46.6697 -101.5928 284° West 416 479 36,000  Level Minneapolis Center
08:00PM 46.6958 -101.7467 284° West 416 479 36,000 -60 Level Minneapolis Center
08:01PM 46.7242 -101.9081 284° West 416 479 35,900 -60 Descending Minneapolis Center
08:03PM 46.7578 -102.1017 284° West 415 478 35,900  Level Minneapolis Center
08:04PM 46.7836 -102.2681 283° West 415 478 36,000  Climbing Minneapolis Center
08:05PM 46.8089 -102.4342 283° West 416 479 36,000  Level Minneapolis Center
08:06PM 46.8347 -102.5997 283° West 417 480 36,000  Level Minneapolis Center
08:07PM 46.8614 -102.7650 283° West 418 481 36,000  Level Minneapolis Center
08:08PM 46.8808 -102.9314 280° West 418 481 36,000 -60 Level Minneapolis Center
08:09PM 46.8972 -103.0997 278° West 417 480 35,900  Descending Minneapolis Center
08:10PM 46.9128 -103.2669 278° West 416 479 36,000  Climbing Salt Lake Center
08:11PM 46.9297 -103.4347 278° West 417 480 36,000 -60 Level Salt Lake Center
08:13PM 46.9675 -103.8042 279° West 416 479 35,900 -60 Descending Minneapolis Center
08:14PM 46.9833 -103.9686 278° West 415 478 35,900  Level Minneapolis Center
08:15PM 46.9978 -104.1367 277° West 413 475 35,900  Level Salt Lake Center
08:16PM 47.0117 -104.3039 277° West 414 476 35,900  Level Salt Lake Center
08:17PM 47.0267 -104.4697 278° West 412 474 36,000  Climbing Salt Lake Center
08:18PM 47.0442 -104.6403 279° West 418 481 36,000  Level Salt Lake Center
08:19PM 47.0583 -104.8022 277° West 409 471 36,000  Level Salt Lake Center
08:20PM 47.0736 -104.9689 278° West 411 473 36,000  Level Salt Lake Center
08:21PM 47.0875 -105.1392 277° West 416 479 36,000  Level Salt Lake Center
08:22PM 47.1031 -105.3114 278° West 424 488 36,000  Level Salt Lake Center
08:23PM 47.1194 -105.5139 277° West 420 483 36,000 -60 Level Salt Lake Center
08:24PM 47.1339 -105.6817 277° West 417 480 35,900 -60 Descending Salt Lake Center
08:25PM 47.1464 -105.8467 276° West 412 474 35,900  Level Salt Lake Center
08:26PM 47.1600 -106.0131 277° West 411 473 35,900  Level Salt Lake Center
08:27PM 47.1728 -106.1808 276° West 412 474 35,900  Level Salt Lake Center
08:28PM 47.1867 -106.3550 277° West 415 478 36,000  Climbing Salt Lake Center
08:29PM 47.1986 -106.5233 276° West 417 480 36,000  Level Salt Lake Center
08:30PM 47.2139 -106.7267 276° West 418 481 36,000  Level Salt Lake Center
08:31PM 47.2267 -106.8942 276° West 416 479 36,000  Level Salt Lake Center
08:32PM 47.2375 -107.0589 276° West 409 471 36,000  Level Salt Lake Center
08:33PM 47.2481 -107.2236 275° West 408 470 36,000  Level Salt Lake Center
08:34PM 47.2594 -107.3878 276° West 405 466 36,000  Level Salt Lake Center
08:35PM 47.2692 -107.5522 275° West 405 466 36,000  Level Salt Lake Center
08:36PM 47.2800 -107.7169 276° West 405 466 36,000  Level Salt Lake Center
08:37PM 47.2917 -107.9150 275° West 406 467 36,000  Level Salt Lake Center
08:38PM 47.3014 -108.0797 275° West 406 467 36,000 -60 Level Salt Lake Center
08:39PM 47.3106 -108.2322 275° West 406 467 35,900 -300 Descending Salt Lake Center
08:40PM 47.3208 -108.3975 275° West 406 467 35,400 -720 Descending Salt Lake Center
08:41PM 47.3303 -108.5692 275° West 416 479 34,500 -900 Descending Salt Lake Center
08:42PM 47.3383 -108.7414 274° West 421 484 33,600 -960 Descending Salt Lake Center
08:44PM 47.3492 -108.9417 275° West 413 475 32,600 -840 Descending Salt Lake Center
08:45PM 47.3583 -109.1092 275° West 410 472 31,900 -300 Descending Salt Lake Center
08:46PM 47.3667 -109.2783 274° West 413 475 32,000  Climbing Salt Lake Center
08:47PM 47.3747 -109.4453 274° West 411 473 32,000  Level Salt Lake Center
08:48PM 47.3825 -109.6119 274° West 410 472 32,000  Level Salt Lake Center
08:49PM 47.3903 -109.7794 274° West 409 471 32,000  Level Salt Lake Center
08:50PM 47.3972 -109.9453 274° West 408 470 32,000  Level Salt Lake Center
08:51PM 47.4028 -110.1106 273° West 404 465 32,000  Level Salt Lake Center
08:52PM 47.4111 -110.3075 274° West 402 463 32,000 -60 Level Salt Lake Center
08:53PM 47.4189 -110.4686 274° West 397 457 31,900 -60 Descending Salt Lake Center
08:54PM 47.4247 -110.6328 273° West 398 458 31,900  Level Salt Lake Center
08:55PM 47.4311 -110.7972 273° West 400 460 31,900  Level Salt Lake Center
08:56PM 47.4353 -110.9636 272° West 403 464 32,000  Climbing Salt Lake Center
08:57PM 47.4414 -111.1319 273° West 406 467 32,000  Level Salt Lake Center
08:58PM 47.4475 -111.3006 273° West 405 466 32,000  Level Salt Lake Center
08:59PM 47.4525 -111.4694 273° West 405 466 32,000 -60 Level Salt Lake Center
09:00PM 47.4550 -111.6361 271° West 404 465 31,900 -60 Descending Salt Lake Center
09:01PM 47.4575 -111.8006 271° West 401 461 31,900 540 Level Salt Lake Center
09:02PM 47.4594 -111.9636 271° West 398 458 33,100 960 Climbing Salt Lake Center
09:03PM 47.4611 -112.1531 271° West 386 444 33,900 420 Climbing Salt Lake Center
09:04PM 47.4633 -112.3069 271° West 376 433 34,000  Climbing Salt Lake Center
09:05PM 47.4664 -112.4611 272° West 376 433 33,900  Descending Salt Lake Center
09:06PM 47.4661 -112.6103 270° West 367 422 34,000  Climbing Salt Lake Center
09:07PM 47.4689 -112.7678 272° West 378 435 33,900  Descending Salt Lake Center
09:08PM 47.4700 -112.9397 271° West 401 461 34,000  Climbing Salt Lake Center
09:09PM 47.4714 -113.1097 271° West 411 473 34,000  Level Salt Lake Center
09:10PM 47.4719 -113.2769 270° West 407 468 34,000  Level Salt Lake Center
09:11PM 47.4725 -113.4431 270° West 404 465 34,000  Level Salt Lake Center
09:12PM 47.4719 -113.6061 270° West 399 459 34,000 -60 Level Salt Lake Center
09:13PM 47.4731 -113.7986 271° West 391 450 33,900 -60 Descending Salt Lake Center
09:14PM 47.4725 -113.9561 270° West 385 443 33,900  Level Salt Lake Center
09:15PM 47.4714 -114.1164 269° West 388 447 34,000  Climbing Salt Lake Center
09:16PM 47.4711 -114.2753 270° West 386 444 34,000 -60 Level Salt Lake Center
09:17PM 47.4703 -114.4333 270° West 385 443 33,900  Descending Salt Lake Center
09:18PM 47.4700 -114.5281 270° West 384 442 34,000  Climbing Seattle Center
09:19PM 47.4686 -114.6847 269° West 381 438 33,900  Descending Seattle Center
09:20PM 47.4678 -114.8442 270° West 386 444 34,000  Climbing Seattle Center
09:21PM 47.4667 -115.0050 269° West 390 449 34,000  Level Seattle Center
09:22PM 47.4644 -115.1650 269° West 390 449 34,000  Level Seattle Center
09:23PM 47.4619 -115.3253 269° West 390 449 34,000  Level Seattle Center
09:24PM 47.4606 -115.4828 269° West 384 442 34,000  Level Seattle Center
09:25PM 47.4583 -115.6300 269° West 365 420 34,000  Level Seattle Center
09:26PM 47.4797 -115.7797 282° West 363 418 34,000  Level Seattle Center
09:27PM 47.5036 -115.9211 284° West 358 412 34,000 -60 Level Seattle Center
09:28PM 47.5283 -116.0606 285° West 353 406 33,900 -60 Descending Seattle Center
09:29PM 47.5492 -116.1950 283° West 341 392 33,900  Level Seattle Center
09:30PM 47.5717 -116.3283 284° West 337 388 33,900  Level Seattle Center
09:31PM 47.5936 -116.4611 284° West 334 384 33,900  Level Seattle Center
09:32PM 47.6150 -116.5917 284° West 330 380 34,000  Climbing Seattle Center
09:33PM 47.6353 -116.7200 283° West 325 374 33,900 -60 Descending Seattle Center
09:34PM 47.6561 -116.8500 283° West 326 375 33,900  Level Seattle Center
09:35PM 47.6808 -117.0069 283° West 331 381 34,000  Climbing Seattle Center
09:36PM 47.7017 -117.1378 283° West 334 384 34,000  Level Seattle Center
09:37PM 47.7222 -117.2692 283° West 333 383 34,000  Level Seattle Center
09:38PM 47.7439 -117.4047 283° West 340 391 34,000  Level Seattle Center
09:39PM 47.7644 -117.5414 283° West 341 392 34,000  Level Seattle Center
09:40PM 47.7853 -117.6778 283° West 340 391 34,000  Level Seattle Center
09:41PM 47.8064 -117.8150 283° West 342 394 34,000 -60 Level Seattle Center
09:42PM 47.8269 -117.9503 283° West 339 390 33,900 -60 Descending Seattle Center
09:43PM 47.8467 -118.0875 282° West 339 390 33,900  Level Seattle Center
09:44PM 47.8664 -118.2206 283° West 334 384 33,900  Level Seattle Center
09:45PM 47.8897 -118.3825 282° West 334 384 33,900  Level Seattle Center
09:46PM 47.9097 -118.5192 282° West 338 389 34,000  Climbing Seattle Center
09:47PM 47.9292 -118.6553 282° West 337 388 34,000  Level Seattle Center
09:48PM 47.9486 -118.7961 282° West 346 398 34,000  Level Seattle Center
09:49PM 47.9694 -118.9364 283° West 347 399 34,000  Level Seattle Center
09:50PM 47.9883 -119.0803 281° West 353 406 34,000  Level Seattle Center
09:51PM 48.0092 -119.2225 282° West 352 405 34,000  Level Seattle Center
09:52PM 48.0286 -119.3686 281° West 357 411 34,000 -60 Level Seattle Center
09:53PM 48.0481 -119.5142 281° West 359 413 33,900 -60 Descending Seattle Center
09:54PM 48.0686 -119.6597 282° West 359 413 33,900  Level Seattle Center
09:55PM 48.0886 -119.8064 282° West 360 414 34,000  Climbing Seattle Center
09:56PM 48.1094 -119.9544 282° West 363 418 34,000 -60 Level Seattle Center
09:57PM 48.1269 -120.1044 280° West 366 421 33,900 -60 Descending Seattle Center
09:58PM 48.1494 -120.2514 283° West 364 419 33,900  Level Seattle Center
09:59PM 48.1775 -120.4006 286° West 371 427 34,000  Climbing Seattle Center
10:00PM 48.2072 -120.5547 286° West 384 442 34,000  Level Seattle Center
10:01PM 48.2328 -120.7025 285° West 369 425 34,000  Level Seattle Center
10:02PM 48.2619 -120.8761 284° West 369 425 34,000  Level Seattle Center
10:03PM 48.2864 -121.0228 284° West 365 420 34,000  Level Seattle Center
10:04PM 48.3119 -121.1700 285° West 365 420 34,000  Level Seattle Center
10:05PM 48.3481 -121.3089 291° West 361 415 34,000 -480 Level Seattle Center
10:06PM 48.3914 -121.4453 296° West 363 418 33,100 -2,100 Descending Seattle Center
10:08PM 48.4331 -121.5806 295° West 359 413 29,800 -3,060 Descending Seattle Center
10:09PM 48.4742 -121.7142 295° West 354 407 26,900 -2,820 Descending Seattle Center
10:10PM 48.5131 -121.8461 294° West 349 402 24,100 -2,220 Descending Seattle Center
10:11PM 48.5531 -121.9739 295° West 341 392 22,500 -2,400 Descending Seattle Center
10:12PM 48.5903 -122.1000 294° West 280 322 19,300 -3,000 Descending Seattle Center
10:13PM 48.6206 -122.2025 294° West 272 313 16,500 -2,940 Descending Seattle Center
10:13PM 48.6333 -122.2667 287° West 260 299 14,400 -2,460 Descending Vancouver Center
10:14PM 48.6500 -122.3667 284° West 260 299 12,400 -1,200 Descending Vancouver Center
10:15PM 48.6833 -122.4667 297° West 260 299 12,000 -240 Descending Vancouver Center
10:16PM 48.7333 -122.5667 307° West 270 311 12,000  Level Vancouver Center
10:17PM 48.7667 -122.6333 307° West 270 311 12,000 -180 Level Vancouver Center
10:18PM 48.8167 -122.7333 307° West 270 311 11,700 -900 Descending Vancouver Center
10:19PM 48.8667 -122.8333 307° West 270 311 10,200 -1,560 Descending Vancouver Center
10:20PM 48.9000 -122.9167 301° West 260 299 8,600 -1,260 Descending Vancouver Center
10:21PM 48.9500 -122.9833 319° Northwest 240 276 7,700 -1,080 Descending Vancouver Center
10:22PM 49.0167 -122.9833 360° North 250 288 6,500 -1,200 Descending Vancouver Center
10:23PM 49.0500 -122.9333 45° Northeast 260 299 5,300 -780 Descending Vancouver Center
10:24PM 49.0500 -122.8333 90° East 240 276 5,000 -300 Descending Vancouver Center
10:25PM 49.0667 -122.7333 76° East 230 265 4,800 -720 Descending Vancouver Center
10:26PM 49.1167 -122.7500 348° North 200 230 3,600 -900 Descending Vancouver Center
10:27PM 49.1500 -122.8000 316° Northwest 190 219 3,100 -300 Descending Vancouver Center
10:28PM 49.1500 -122.8833 270° West 190 219 3,000 -300 Descending Vancouver Center
10:29PM 49.1667 -122.9500 291° West 170 196 2,600 -660 Descending Vancouver Center
10:30PM 49.1667 -123.0333 270° West 170 196 1,700 -900 Descending Vancouver Center
10:31PM 49.1667 -123.0833 270° West 150 173 900 -780 Descending Vancouver Center
10:32PM 49.1833 -123.1333 297° West 130 150 200 -720 Descending Vancouver Center